Time;durP1;ratioP1;P1;durP2;ratioP2;P2;SDS_P1;SDS_P2;PMS_P1;PMS_P2;Temp;Humidity;BMP_temperature;BMP_pressure;BME280_temperature;BME280_humidity;BME280_pressure;Samples;Min_cycle;Max_cycle;Signal;HPM_P1;HPM_P2
2023/06/26 00:02:03;;;;;;;10.15;8.18;;;22.60;99.90;;;;;;5038039;28;20478;-66
2023/06/26 00:04:29;;;;;;;11.00;8.98;;;22.60;99.90;;;;;;5055032;28;20458;-66
2023/06/26 00:06:54;;;;;;;11.48;9.57;;;22.60;99.90;;;;;;5055944;28;20114;-66
2023/06/26 00:09:20;;;;;;;10.85;8.68;;;22.60;99.90;;;;;;5055776;28;20456;-66
2023/06/26 00:11:46;;;;;;;9.75;8.75;;;22.60;99.90;;;;;;5036878;28;20395;-66
2023/06/26 00:14:12;;;;;;;14.38;8.90;;;22.60;99.90;;;;;;5068888;28;20048;-66
2023/06/26 00:16:37;;;;;;;10.02;8.93;;;22.50;99.90;;;;;;5057962;28;20079;-66
2023/06/26 00:19:03;;;;;;;11.45;9.23;;;22.50;99.90;;;;;;5057187;28;20041;-66
2023/06/26 00:21:28;;;;;;;10.18;9.07;;;22.50;99.90;;;;;;5037830;28;20118;-68
2023/06/26 00:23:54;;;;;;;11.70;9.05;;;22.50;99.90;;;;;;5037501;28;20045;-68
2023/06/26 00:26:20;;;;;;;10.73;9.52;;;22.50;99.90;;;;;;5056256;28;20094;-68
2023/06/26 00:28:45;;;;;;;11.55;9.57;;;22.50;99.90;;;;;;5057343;28;20045;-68
2023/06/26 00:31:11;;;;;;;12.45;8.57;;;22.50;99.90;;;;;;5057982;28;20048;-68
2023/06/26 00:33:37;;;;;;;11.52;8.80;;;22.50;99.90;;;;;;5039997;28;20048;-68
2023/06/26 00:36:02;;;;;;;9.80;8.73;;;22.40;99.90;;;;;;5075261;28;20090;-67
2023/06/26 00:38:28;;;;;;;11.52;8.38;;;22.40;99.90;;;;;;5075238;28;20039;-67
2023/06/26 00:40:54;;;;;;;9.38;8.38;;;22.40;99.90;;;;;;5040643;28;20043;-67
2023/06/26 00:43:20;;;;;;;10.07;8.70;;;22.40;99.90;;;;;;5037303;28;20482;-67
2023/06/26 00:45:46;;;;;;;12.35;8.82;;;22.40;99.90;;;;;;5054981;28;20052;-67
2023/06/26 00:48:12;;;;;;;10.27;8.60;;;22.40;99.90;;;;;;5054593;28;20068;-67
2023/06/26 00:50:37;;;;;;;10.57;8.65;;;22.40;99.90;;;;;;5037297;28;20048;-67
2023/06/26 00:53:03;;;;;;;10.95;9.43;;;22.40;99.90;;;;;;5019378;28;20128;-67
2023/06/26 00:55:30;;;;;;;10.02;8.70;;;22.40;99.90;;;;;;5037114;28;20041;-67
2023/06/26 00:57:56;;;;;;;11.02;8.63;;;22.40;99.90;;;;;;5036809;28;20044;-67
2023/06/26 01:00:22;;;;;;;11.25;8.77;;;22.40;99.90;;;;;;5053642;28;20049;-67
2023/06/26 01:02:48;;;;;;;10.40;8.15;;;22.40;99.90;;;;;;5054966;28;20041;-67
2023/06/26 01:05:20;;;;;;;10.75;9.57;;;22.30;99.90;;;;;;5019490;28;20036;-67
2023/06/26 01:07:48;;;;;;;11.82;8.85;;;22.30;99.90;;;;;;5036242;28;20425;-67
2023/06/26 01:10:13;;;;;;;10.20;8.90;;;22.30;99.90;;;;;;5054511;28;20047;-67
2023/06/26 01:12:39;;;;;;;9.63;8.30;;;22.30;99.90;;;;;;5054474;28;20037;-67
2023/06/26 01:15:06;;;;;;;10.43;8.15;;;22.30;99.90;;;;;;5036241;28;20124;-67
2023/06/26 01:17:32;;;;;;;10.13;8.32;;;22.30;99.90;;;;;;5036670;28;20044;-67
2023/06/26 01:20:07;;;;;;;10.88;9.20;;;22.20;99.90;;;;;;5036588;28;20126;-67
2023/06/26 01:22:47;;;;;;;10.70;8.65;;;22.20;99.90;;;;;;5036022;28;20045;-67
2023/06/26 01:25:29;;;;;;;12.68;8.60;;;22.20;99.90;;;;;;5053806;28;20116;-66
2023/06/26 01:27:55;;;;;;;10.65;9.20;;;22.30;99.90;;;;;;5054258;28;20037;-66
2023/06/26 01:30:22;;;;;;;11.18;8.57;;;22.20;99.90;;;;;;5035325;28;20064;-66
2023/06/26 01:32:49;;;;;;;11.95;9.95;;;22.20;99.90;;;;;;5054255;28;20056;-66
2023/06/26 01:35:15;;;;;;;10.32;8.60;;;22.20;99.90;;;;;;5057869;28;20040;-66
2023/06/26 01:37:41;;;;;;;10.68;9.55;;;22.20;99.90;;;;;;5074049;28;20135;-66
2023/06/26 01:40:07;;;;;;;11.45;9.48;;;22.20;99.90;;;;;;5056369;28;20541;-66
2023/06/26 01:42:34;;;;;;;12.50;9.65;;;22.20;99.90;;;;;;5023656;28;20473;-65
2023/06/26 01:45:09;;;;;;;9.95;8.95;;;22.20;99.90;;;;;;5054149;28;20052;-66
2023/06/26 01:47:37;;;;;;;10.43;9.30;;;22.20;99.90;;;;;;5041095;28;20447;-66
2023/06/26 01:50:09;;;;;;;11.82;9.52;;;22.10;99.90;;;;;;5035360;28;20363;-66
2023/06/26 01:52:53;;;;;;;11.52;9.02;;;22.10;99.90;;;;;;5036130;28;20040;-66
2023/06/26 01:55:43;;;;;;;10.97;9.47;;;22.10;99.90;;;;;;5035957;28;20045;-66
2023/06/26 01:58:09;;;;;;;10.82;9.20;;;22.00;99.90;;;;;;5057824;28;20314;-66
2023/06/26 02:00:36;;;;;;;10.90;8.63;;;22.00;99.90;;;;;;5049825;28;20045;-66
2023/06/26 02:03:04;;;;;;;11.55;8.85;;;22.00;99.90;;;;;;5036249;28;20490;-66
2023/06/26 02:05:30;;;;;;;11.40;9.60;;;22.00;99.90;;;;;;5052709;28;20033;-66
2023/06/26 02:07:56;;;;;;;10.65;9.52;;;22.00;99.90;;;;;;5035800;28;20486;-66
2023/06/26 02:10:22;;;;;;;11.40;9.95;;;22.00;99.90;;;;;;5052824;28;20047;-66
2023/06/26 02:12:48;;;;;;;12.38;9.82;;;22.00;99.90;;;;;;5035756;28;20489;-66
2023/06/26 02:15:13;;;;;;;12.80;9.73;;;22.00;99.90;;;;;;5053193;28;20528;-66
2023/06/26 02:17:39;;;;;;;11.95;10.02;;;22.00;99.90;;;;;;5035156;28;20036;-66
2023/06/26 02:20:06;;;;;;;12.27;10.05;;;21.90;99.90;;;;;;5053419;28;20041;-66
2023/06/26 02:22:31;;;;;;;11.88;10.25;;;21.90;99.90;;;;;;5053253;28;20045;-66
2023/06/26 02:24:57;;;;;;;12.32;10.02;;;21.90;99.90;;;;;;5052288;28;20033;-66
2023/06/26 02:27:23;;;;;;;12.85;10.15;;;21.90;99.90;;;;;;5018898;28;20063;-66
2023/06/26 02:29:48;;;;;;;13.43;10.25;;;21.80;99.90;;;;;;5052796;28;20075;-66
2023/06/26 02:32:14;;;;;;;13.65;10.65;;;21.80;99.90;;;;;;5049762;28;20044;-66
2023/06/26 02:34:40;;;;;;;12.32;10.90;;;21.80;99.90;;;;;;5072937;28;20040;-66
2023/06/26 02:37:07;;;;;;;12.23;10.40;;;21.80;99.90;;;;;;5055310;28;20044;-67
2023/06/26 02:39:34;;;;;;;12.82;10.40;;;21.80;99.90;;;;;;5046336;28;20529;-66
2023/06/26 02:42:00;;;;;;;13.52;10.30;;;21.80;99.90;;;;;;5035068;28;20051;-66
2023/06/26 02:44:25;;;;;;;13.95;10.35;;;21.80;99.90;;;;;;5035175;28;20036;-66
2023/06/26 02:46:51;;;;;;;12.52;11.05;;;21.70;99.90;;;;;;5034633;28;20044;-66
2023/06/26 02:49:17;;;;;;;13.65;10.73;;;21.70;99.90;;;;;;5052762;28;20047;-66
2023/06/26 02:51:42;;;;;;;14.07;11.65;;;21.60;99.90;;;;;;5052636;28;20375;-66
2023/06/26 02:54:08;;;;;;;13.25;11.38;;;21.60;99.90;;;;;;5034296;28;20032;-66
2023/06/26 02:56:34;;;;;;;11.77;10.02;;;21.50;99.90;;;;;;5052661;28;20041;-66
2023/06/26 02:58:59;;;;;;;12.52;11.05;;;21.50;99.90;;;;;;5034416;28;20045;-66
2023/06/26 03:01:25;;;;;;;12.15;10.95;;;21.40;99.90;;;;;;5051715;28;20033;-66
2023/06/26 03:03:51;;;;;;;12.90;11.50;;;21.40;99.90;;;;;;5052686;28;20068;-66
2023/06/26 03:06:17;;;;;;;13.60;12.18;;;21.30;99.90;;;;;;5052290;28;20080;-66
2023/06/26 03:08:42;;;;;;;13.05;11.50;;;21.30;99.90;;;;;;5017186;28;20080;-66
2023/06/26 03:11:09;;;;;;;13.20;11.32;;;21.30;99.90;;;;;;5034819;28;20067;-66
2023/06/26 03:13:35;;;;;;;13.50;11.48;;;21.30;99.90;;;;;;5055552;28;20477;-66
2023/06/26 03:16:01;;;;;;;15.63;11.82;;;21.20;99.90;;;;;;5053579;28;20401;-66
2023/06/26 03:18:28;;;;;;;11.90;10.60;;;21.20;99.90;;;;;;5037500;28;20037;-66
2023/06/26 03:20:55;;;;;;;14.85;12.32;;;21.20;99.90;;;;;;5071580;28;20056;-66
2023/06/26 03:23:21;;;;;;;14.43;10.95;;;21.20;99.90;;;;;;5054277;28;20044;-66
2023/06/26 03:25:47;;;;;;;12.48;10.50;;;21.10;99.90;;;;;;5043281;28;20432;-66
2023/06/26 03:28:13;;;;;;;14.07;10.52;;;21.10;99.90;;;;;;5050809;28;20106;-66
2023/06/26 03:30:39;;;;;;;15.82;11.43;;;21.10;99.90;;;;;;5034432;28;20061;-66
2023/06/26 03:33:04;;;;;;;13.60;11.23;;;21.00;99.90;;;;;;5034335;28;20532;-66
2023/06/26 03:35:39;;;;;;;12.63;10.77;;;21.00;99.90;;;;;;5035152;28;20037;-66
2023/06/26 03:38:05;;;;;;;15.00;11.45;;;21.00;99.90;;;;;;5034560;28;20072;-66
2023/06/26 03:40:46;;;;;;;12.80;8.90;;;21.00;99.90;;;;;;5051528;28;20492;-66
2023/06/26 03:43:11;;;;;;;12.80;10.13;;;21.00;99.90;;;;;;5051571;28;20429;-66
2023/06/26 03:45:37;;;;;;;10.85;9.25;;;20.90;99.90;;;;;;5034323;28;20033;-66
2023/06/26 03:48:03;;;;;;;14.88;10.43;;;20.90;99.90;;;;;;5034294;28;20056;-66
2023/06/26 03:50:29;;;;;;;15.27;10.85;;;20.90;99.90;;;;;;5033150;28;20486;-66
2023/06/26 03:52:54;;;;;;;15.88;10.93;;;20.80;99.90;;;;;;5037749;28;20037;-65
2023/06/26 03:55:22;;;;;;;15.70;10.35;;;20.80;99.90;;;;;;5072046;28;20112;-65
2023/06/26 03:57:48;;;;;;;15.52;10.80;;;20.80;99.90;;;;;;5071134;28;20119;-66
2023/06/26 04:00:14;;;;;;;14.80;9.90;;;20.80;99.90;;;;;;5053955;28;20119;-66
2023/06/26 04:02:40;;;;;;;20.75;11.30;;;20.80;99.90;;;;;;5054040;28;20124;-66
2023/06/26 04:05:06;;;;;;;17.38;10.43;;;20.70;99.90;;;;;;5070440;28;20553;-66
2023/06/26 04:07:31;;;;;;;19.58;11.15;;;20.70;99.90;;;;;;5053626;28;20051;-66
2023/06/26 04:09:57;;;;;;;18.42;10.38;;;20.70;99.90;;;;;;5070648;28;20040;-66
2023/06/26 04:12:23;;;;;;;13.85;10.38;;;20.70;99.90;;;;;;5053634;28;20075;-66
2023/06/26 04:14:49;;;;;;;19.70;10.98;;;20.60;99.90;;;;;;5036818;28;20462;-66
2023/06/26 04:17:14;;;;;;;19.23;11.70;;;20.60;99.90;;;;;;5070935;28;20492;-66
2023/06/26 04:19:40;;;;;;;20.60;11.70;;;20.50;99.90;;;;;;5053603;28;20044;-66
2023/06/26 04:22:06;;;;;;;19.00;12.57;;;20.40;99.90;;;;;;5039532;28;20056;-66
2023/06/26 04:24:32;;;;;;;19.08;12.82;;;20.30;99.90;;;;;;5050679;28;20036;-66
2023/06/26 04:26:57;;;;;;;23.23;12.95;;;20.20;99.90;;;;;;5033724;28;20041;-66
2023/06/26 04:29:25;;;;;;;18.38;12.55;;;20.10;99.90;;;;;;5029995;28;20449;-66
2023/06/26 04:31:51;;;;;;;19.63;13.15;;;20.10;99.90;;;;;;5030936;28;20050;-66
2023/06/26 04:34:17;;;;;;;21.58;13.25;;;20.00;99.90;;;;;;5014058;28;20095;-66
2023/06/26 04:36:47;;;;;;;20.50;12.98;;;20.00;99.90;;;;;;5030275;28;20050;-66
2023/06/26 04:39:14;;;;;;;19.15;11.18;;;20.00;99.90;;;;;;5063104;28;20473;-66
2023/06/26 04:41:40;;;;;;;18.15;11.73;;;19.90;99.90;;;;;;5017418;28;20084;-66
2023/06/26 04:44:06;;;;;;;22.25;11.00;;;19.90;99.90;;;;;;5034146;28;20037;-66
2023/06/26 04:46:32;;;;;;;13.90;9.90;;;19.90;99.90;;;;;;5033357;28;20045;-66
2023/06/26 04:48:57;;;;;;;16.27;10.00;;;19.80;99.90;;;;;;5034228;28;20073;-66
2023/06/26 04:51:26;;;;;;;18.98;9.70;;;19.80;99.90;;;;;;5034787;28;20120;-66
2023/06/26 04:53:52;;;;;;;14.15;9.00;;;19.80;99.90;;;;;;5033429;28;20087;-66
2023/06/26 04:56:18;;;;;;;14.30;8.52;;;19.80;99.90;;;;;;5035194;28;20482;-66
2023/06/26 04:58:44;;;;;;;15.90;8.68;;;19.70;99.90;;;;;;5033871;28;20045;-66
2023/06/26 05:01:10;;;;;;;16.65;7.53;;;19.70;99.90;;;;;;5034367;28;20033;-66
2023/06/26 05:03:36;;;;;;;16.08;8.02;;;19.70;99.90;;;;;;5034887;28;20040;-66
2023/06/26 05:06:02;;;;;;;14.25;7.00;;;19.60;99.90;;;;;;5034272;28;20464;-66
2023/06/26 05:08:28;;;;;;;19.08;7.22;;;19.60;99.90;;;;;;5032849;28;20117;-67
2023/06/26 05:10:57;;;;;;;17.40;6.18;;;19.60;99.90;;;;;;5034379;28;20398;-67
2023/06/26 05:13:23;;;;;;;15.02;5.07;;;19.50;99.90;;;;;;5033761;28;20041;-67
2023/06/26 05:15:49;;;;;;;14.48;6.30;;;19.40;99.90;;;;;;5042411;28;20393;-67
2023/06/26 05:18:15;;;;;;;18.20;7.25;;;19.30;99.90;;;;;;5033840;28;20045;-66
2023/06/26 05:20:41;;;;;;;14.52;6.18;;;19.30;99.90;;;;;;5032215;28;20052;-67
2023/06/26 05:23:07;;;;;;;16.95;6.18;;;19.20;99.90;;;;;;5033615;28;20493;-66
2023/06/26 05:25:36;;;;;;;14.40;6.00;;;19.20;99.90;;;;;;5033495;28;20049;-67
2023/06/26 05:28:04;;;;;;;17.98;5.95;;;19.20;99.90;;;;;;5015845;28;20513;-67
2023/06/26 05:30:31;;;;;;;12.05;5.22;;;19.20;99.90;;;;;;5033138;28;20057;-67
2023/06/26 05:33:00;;;;;;;14.07;5.88;;;19.30;99.90;;;;;;5033073;28;20038;-67
2023/06/26 05:35:29;;;;;;;15.70;5.22;;;19.30;99.90;;;;;;5032115;28;20490;-67
2023/06/26 05:37:56;;;;;;;15.23;5.50;;;19.30;99.90;;;;;;5038890;28;20497;-66
2023/06/26 05:40:22;;;;;;;13.30;4.32;;;19.30;99.90;;;;;;5048750;28;20034;-66
2023/06/26 05:42:48;;;;;;;13.68;5.13;;;19.30;99.90;;;;;;5032082;28;20052;-66
2023/06/26 05:45:14;;;;;;;16.42;5.40;;;19.40;99.90;;;;;;5034111;28;20046;-66
2023/06/26 05:47:40;;;;;;;17.30;4.93;;;19.40;99.90;;;;;;5032644;28;20375;-67
2023/06/26 05:50:07;;;;;;;13.75;5.07;;;19.50;99.90;;;;;;5033563;28;20040;-67
2023/06/26 05:52:33;;;;;;;14.35;4.55;;;19.60;99.90;;;;;;5032324;28;20057;-67
2023/06/26 05:55:00;;;;;;;12.65;5.20;;;19.50;99.90;;;;;;5016430;28;20119;-65
2023/06/26 05:57:30;;;;;;;12.18;4.68;;;19.50;99.90;;;;;;5033126;28;20040;-66
2023/06/26 06:00:03;;;;;;;21.05;5.60;;;19.60;99.90;;;;;;5033604;28;20171;-66
2023/06/26 06:02:28;;;;;;;11.57;4.18;;;19.70;99.90;;;;;;5043579;28;20116;-66
2023/06/26 06:04:54;;;;;;;12.75;4.43;;;19.80;99.90;;;;;;5032425;28;20176;-65
2023/06/26 06:07:20;;;;;;;11.15;4.15;;;20.00;99.90;;;;;;5043617;28;20080;-66
2023/06/26 06:09:45;;;;;;;9.63;3.60;;;20.10;99.90;;;;;;5048999;28;20052;-66
2023/06/26 06:12:11;;;;;;;11.35;4.38;;;20.20;99.90;;;;;;5044185;28;20045;-65
2023/06/26 06:14:37;;;;;;;15.57;3.80;;;20.30;99.90;;;;;;5033222;28;20048;-65
2023/06/26 06:17:02;;;;;;;12.32;3.65;;;20.30;99.90;;;;;;5031637;28;20081;-65
2023/06/26 06:19:28;;;;;;;12.65;3.90;;;20.40;99.90;;;;;;5012858;28;20041;-65
2023/06/26 06:21:54;;;;;;;9.65;3.15;;;20.50;99.90;;;;;;5029578;28;20091;-65
2023/06/26 06:24:20;;;;;;;9.30;2.90;;;20.50;99.90;;;;;;5012002;28;20033;-65
2023/06/26 06:26:46;;;;;;;9.25;3.45;;;20.50;99.90;;;;;;5029204;28;20128;-65
2023/06/26 06:29:11;;;;;;;8.40;3.40;;;20.60;99.90;;;;;;5032158;28;20132;-65
2023/06/26 06:31:37;;;;;;;7.05;2.92;;;20.70;99.90;;;;;;5015204;28;20052;-65
2023/06/26 06:34:03;;;;;;;10.38;2.83;;;20.70;99.90;;;;;;5049746;28;20041;-65
2023/06/26 06:36:28;;;;;;;9.35;3.05;;;20.80;99.90;;;;;;5062474;28;20040;-65
2023/06/26 06:38:54;;;;;;;12.07;3.08;;;20.90;99.90;;;;;;5050545;28;20394;-65
2023/06/26 06:41:20;;;;;;;6.78;3.00;;;20.90;99.90;;;;;;5056048;28;20037;-66
2023/06/26 06:43:46;;;;;;;9.85;2.63;;;20.90;99.90;;;;;;5032245;28;20049;-65
2023/06/26 06:46:12;;;;;;;12.38;2.92;;;20.90;99.90;;;;;;5042416;28;20413;-65
2023/06/26 06:48:37;;;;;;;6.13;2.50;;;20.80;99.90;;;;;;5049687;28;20405;-65
2023/06/26 06:51:03;;;;;;;11.50;2.97;;;20.70;99.90;;;;;;5054283;28;20461;-65
2023/06/26 06:53:29;;;;;;;9.05;2.40;;;20.70;99.90;;;;;;5030574;28;20123;-65
2023/06/26 06:55:55;;;;;;;7.85;2.17;;;20.70;99.90;;;;;;5026371;28;20063;-65
2023/06/26 06:58:20;;;;;;;7.47;2.40;;;20.70;99.90;;;;;;5051195;28;20072;-65
2023/06/26 07:00:46;;;;;;;7.50;2.05;;;20.80;99.90;;;;;;5065508;28;20075;-68
2023/06/26 07:03:12;;;;;;;7.15;2.38;;;20.80;99.90;;;;;;5048851;28;20099;-67
2023/06/26 07:05:38;;;;;;;6.00;2.30;;;20.80;99.90;;;;;;5057917;28;20033;-68
2023/06/26 07:08:04;;;;;;;5.43;2.20;;;20.80;99.90;;;;;;5050534;28;20476;-68
2023/06/26 07:10:30;;;;;;;10.02;2.70;;;20.70;99.90;;;;;;5034306;28;20040;-68
2023/06/26 07:12:55;;;;;;;7.82;2.55;;;20.80;99.90;;;;;;5048274;28;20052;-68
2023/06/26 07:15:21;;;;;;;7.00;2.55;;;20.90;99.90;;;;;;5054810;28;20397;-68
2023/06/26 07:17:47;;;;;;;8.75;2.30;;;21.00;99.90;;;;;;5050973;28;20052;-67
2023/06/26 07:20:15;;;;;;;7.47;2.25;;;21.10;99.90;;;;;;5068263;28;20043;-67
2023/06/26 07:22:42;;;;;;;6.47;2.05;;;21.10;99.90;;;;;;5046364;28;20037;-67
2023/06/26 07:25:11;;;;;;;7.55;2.70;;;21.00;99.90;;;;;;5031593;28;20119;-64
2023/06/26 07:27:38;;;;;;;8.68;2.63;;;20.90;99.90;;;;;;5029985;28;20577;-65
2023/06/26 07:30:04;;;;;;;6.68;2.30;;;20.80;99.90;;;;;;5030367;28;20049;-64
2023/06/26 07:32:30;;;;;;;5.57;2.35;;;20.80;99.90;;;;;;5047883;28;20476;-64
2023/06/26 07:34:55;;;;;;;9.68;3.00;;;20.90;99.90;;;;;;5028784;28;20048;-64
2023/06/26 07:37:21;;;;;;;7.53;2.55;;;21.00;99.90;;;;;;5031905;28;20048;-65
2023/06/26 07:39:48;;;;;;;8.50;3.15;;;21.10;99.90;;;;;;5048771;28;20512;-65
2023/06/26 07:42:13;;;;;;;8.20;2.63;;;21.20;99.90;;;;;;5047552;28;20045;-65
2023/06/26 07:44:39;;;;;;;6.82;2.40;;;21.10;99.90;;;;;;5047447;28;20116;-65
2023/06/26 07:47:05;;;;;;;6.30;2.45;;;21.00;99.90;;;;;;5048677;28;20048;-64
2023/06/26 07:49:31;;;;;;;6.65;2.63;;;20.90;99.90;;;;;;5045853;28;20056;-64
2023/06/26 07:51:56;;;;;;;8.98;2.42;;;20.90;99.90;;;;;;5030985;28;20040;-64
2023/06/26 07:54:22;;;;;;;7.53;2.47;;;20.90;99.90;;;;;;5047789;28;20132;-64
2023/06/26 07:56:54;;;;;;;7.55;2.10;;;21.00;99.90;;;;;;5045291;28;20041;-64
2023/06/26 07:59:21;;;;;;;6.63;2.15;;;21.00;99.90;;;;;;5042336;28;20049;-64
2023/06/26 08:01:47;;;;;;;10.65;2.40;;;20.90;99.90;;;;;;5028791;28;20133;-64
2023/06/26 08:04:13;;;;;;;9.98;2.60;;;20.90;99.90;;;;;;5034129;28;20116;-67
2023/06/26 08:06:40;;;;;;;4.72;1.70;;;20.90;99.90;;;;;;5047492;28;20037;-68
2023/06/26 08:09:07;;;;;;;8.57;2.40;;;20.90;99.90;;;;;;5046110;28;20047;-67
2023/06/26 08:11:33;;;;;;;5.50;2.42;;;20.90;99.90;;;;;;5043289;28;20045;-67
2023/06/26 08:13:59;;;;;;;6.68;2.38;;;21.10;99.90;;;;;;5045376;28;20151;-68
2023/06/26 08:16:25;;;;;;;4.57;2.15;;;21.10;99.90;;;;;;5034872;28;20161;-68
2023/06/26 08:18:51;;;;;;;9.48;2.42;;;21.10;99.90;;;;;;5037643;28;20044;-68
2023/06/26 08:21:18;;;;;;;6.97;2.60;;;21.10;99.90;;;;;;5042731;28;20051;-68
2023/06/26 08:23:43;;;;;;;8.27;2.47;;;21.20;99.90;;;;;;5049046;28;20476;-68
2023/06/26 08:26:10;;;;;;;6.68;2.63;;;21.30;99.90;;;;;;5051077;28;20055;-69
2023/06/26 08:28:36;;;;;;;7.57;2.67;;;21.20;99.90;;;;;;5032751;28;20486;-68
2023/06/26 08:31:02;;;;;;;10.68;3.08;;;21.10;99.90;;;;;;5067369;28;20490;-68
2023/06/26 08:33:28;;;;;;;6.85;2.65;;;21.10;99.90;;;;;;5031493;28;20044;-69
2023/06/26 08:35:54;;;;;;;9.30;2.55;;;21.10;99.90;;;;;;5053691;28;20040;-69
2023/06/26 08:38:23;;;;;;;5.65;2.50;;;21.10;99.90;;;;;;5073070;28;20036;-69
2023/06/26 08:40:49;;;;;;;7.80;2.80;;;21.20;99.90;;;;;;5054740;28;20135;-69
2023/06/26 08:43:15;;;;;;;5.57;2.00;;;21.30;99.90;;;;;;5072410;28;20028;-69
2023/06/26 08:45:41;;;;;;;6.63;2.22;;;21.40;99.90;;;;;;5048993;28;20072;-70
2023/06/26 08:48:09;;;;;;;9.35;3.25;;;21.20;99.90;;;;;;5043772;28;20466;-70
2023/06/26 08:50:38;;;;;;;7.80;2.88;;;21.20;99.90;;;;;;5043734;28;20049;-70
2023/06/26 08:53:32;;;;;;;8.45;2.53;;;21.20;99.90;;;;;;5072176;28;20052;-69
2023/06/26 08:55:59;;;;;;;7.40;3.05;;;21.20;99.90;;;;;;5053602;28;20135;-69
2023/06/26 08:58:25;;;;;;;6.65;2.70;;;21.20;99.90;;;;;;5052274;28;20112;-68
2023/06/26 09:00:51;;;;;;;7.25;3.38;;;21.20;99.90;;;;;;5041402;28;20156;-68
2023/06/26 09:03:17;;;;;;;8.90;3.33;;;21.20;99.90;;;;;;5045839;28;20063;-68
2023/06/26 09:05:43;;;;;;;10.07;3.30;;;21.30;99.90;;;;;;5047032;28;20037;-68
2023/06/26 09:08:08;;;;;;;7.10;3.53;;;21.40;99.90;;;;;;5075056;28;20037;-68
2023/06/26 09:10:34;;;;;;;8.20;3.70;;;21.50;99.90;;;;;;5074781;28;20102;-68
2023/06/26 09:13:02;;;;;;;6.88;3.00;;;21.50;99.90;;;;;;5056309;28;20127;-67
2023/06/26 09:15:38;;;;;;;6.05;2.90;;;21.60;99.90;;;;;;5070280;28;20477;-66
2023/06/26 09:18:05;;;;;;;8.50;3.03;;;21.60;99.90;;;;;;5044273;28;20052;-66
2023/06/26 09:20:33;;;;;;;5.47;2.45;;;21.70;99.90;;;;;;5052354;28;20037;-64
2023/06/26 09:22:59;;;;;;;7.65;3.58;;;21.60;99.90;;;;;;5037954;28;20099;-64
2023/06/26 09:25:25;;;;;;;6.18;3.75;;;21.30;99.90;;;;;;5037699;28;20044;-65
2023/06/26 09:27:52;;;;;;;7.97;3.60;;;21.20;99.90;;;;;;5045676;28;20043;-66
2023/06/26 09:30:18;;;;;;;8.73;4.22;;;21.00;99.90;;;;;;5045630;28;20060;-65
2023/06/26 09:32:44;;;;;;;7.18;3.47;;;20.90;99.90;;;;;;5044688;28;20381;-66
2023/06/26 09:35:11;;;;;;;9.93;3.67;;;20.90;99.90;;;;;;5054812;28;20037;-66
2023/06/26 09:37:37;;;;;;;5.93;2.97;;;21.00;99.90;;;;;;5054253;28;20037;-64
2023/06/26 09:40:05;;;;;;;8.85;3.50;;;21.00;99.90;;;;;;5036530;28;20076;-65
2023/06/26 09:42:31;;;;;;;7.53;3.80;;;21.00;99.90;;;;;;5035477;28;20045;-65
2023/06/26 09:44:57;;;;;;;6.30;3.42;;;21.20;99.90;;;;;;5062977;28;20487;-66
2023/06/26 09:47:23;;;;;;;8.65;3.42;;;21.40;99.90;;;;;;5052216;28;20049;-65
2023/06/26 09:49:50;;;;;;;8.32;3.28;;;21.60;99.90;;;;;;5052877;28;20041;-65
2023/06/26 09:52:16;;;;;;;8.85;3.55;;;21.90;99.90;;;;;;5048514;28;20066;-65
2023/06/26 09:54:46;;;;;;;6.85;3.17;;;21.90;99.90;;;;;;5051924;28;20048;-65
2023/06/26 09:57:16;;;;;;;9.30;3.70;;;22.10;99.90;;;;;;5036189;28;20045;-65
2023/06/26 09:59:44;;;;;;;7.07;3.38;;;22.10;99.90;;;;;;5036090;28;20147;-65
2023/06/26 10:02:11;;;;;;;6.55;3.58;;;21.80;99.90;;;;;;5053423;28;20071;-65
2023/06/26 10:04:36;;;;;;;7.68;3.78;;;21.70;99.90;;;;;;5038303;28;20037;-64
2023/06/26 10:07:06;;;;;;;9.07;3.55;;;21.70;99.90;;;;;;5053511;28;20048;-66
2023/06/26 10:09:32;;;;;;;8.77;4.18;;;21.80;99.90;;;;;;5035247;28;20056;-65
2023/06/26 10:12:05;;;;;;;7.93;4.25;;;21.80;99.90;;;;;;5054015;28;20045;-65
2023/06/26 10:14:42;;;;;;;7.43;2.90;;;21.90;99.90;;;;;;5049442;28;20149;-65
2023/06/26 10:17:11;;;;;;;7.53;2.78;;;21.90;99.90;;;;;;5063651;28;20040;-68
2023/06/26 10:19:39;;;;;;;8.13;3.03;;;21.80;99.90;;;;;;5044703;28;20072;-68
2023/06/26 10:22:07;;;;;;;5.78;2.40;;;21.40;99.90;;;;;;5036495;28;20044;-69
2023/06/26 10:24:36;;;;;;;8.45;2.95;;;21.50;99.90;;;;;;5018124;28;20044;-70
2023/06/26 10:27:29;;;;;;;7.65;2.78;;;21.50;99.90;;;;;;5035794;28;20047;-67
2023/06/26 10:29:59;;;;;;;7.97;2.67;;;21.50;99.90;;;;;;5044117;28;20469;-68
2023/06/26 10:32:27;;;;;;;5.82;2.20;;;21.40;99.90;;;;;;5052428;28;20049;-68
2023/06/26 10:34:54;;;;;;;5.18;2.05;;;21.40;99.90;;;;;;5053340;28;20472;-68
2023/06/26 10:37:44;;;;;;;7.13;2.45;;;21.30;99.90;;;;;;5031930;28;20049;-68
2023/06/26 10:40:11;;;;;;;3.45;1.65;;;21.50;99.90;;;;;;5047422;28;20402;-68
2023/06/26 10:42:38;;;;;;;7.35;2.33;;;21.40;99.90;;;;;;5042861;28;20098;-68
2023/06/26 10:45:15;;;;;;;9.02;2.35;;;21.50;99.90;;;;;;5053221;28;20047;-68
2023/06/26 10:47:42;;;;;;;7.75;2.22;;;21.50;99.90;;;;;;5067008;28;20526;-68
2023/06/26 10:50:30;;;;;;;8.40;2.50;;;21.50;99.90;;;;;;5061690;28;20053;-68
2023/06/26 10:53:24;;;;;;;6.43;2.33;;;21.40;99.90;;;;;;5022924;28;20486;-64
2023/06/26 10:55:59;;;;;;;7.45;2.45;;;21.30;99.90;;;;;;5032424;28;20524;-65
2023/06/26 10:58:42;;;;;;;7.07;2.55;;;21.40;99.90;;;;;;5015141;28;20123;-64
2023/06/26 11:01:26;;;;;;;7.30;1.95;;;21.40;99.90;;;;;;5022770;28;20131;-62
2023/06/26 11:03:58;;;;;;;6.10;2.08;;;21.20;99.90;;;;;;5048867;28;20553;-63
2023/06/26 11:06:23;;;;;;;8.07;2.25;;;21.40;99.90;;;;;;5033555;28;20049;-63
2023/06/26 11:08:58;;;;;;;7.93;2.03;;;21.30;99.90;;;;;;5034699;28;20071;-62
2023/06/26 11:11:53;;;;;;;10.13;2.33;;;21.40;99.90;;;;;;5052359;28;20116;-62
2023/06/26 11:14:20;;;;;;;8.70;2.13;;;21.40;99.90;;;;;;5048410;28;20119;-62
2023/06/26 11:16:46;;;;;;;6.15;2.22;;;21.50;99.90;;;;;;5048131;28;20040;-62
2023/06/26 11:19:13;;;;;;;6.05;2.30;;;21.60;99.90;;;;;;5051796;28;20098;-62
2023/06/26 11:21:39;;;;;;;9.30;2.10;;;21.80;99.90;;;;;;5034660;28;20516;-62
2023/06/26 11:24:08;;;;;;;8.05;2.55;;;22.10;99.90;;;;;;5034747;28;20079;-62
2023/06/26 11:26:41;;;;;;;6.57;2.00;;;22.20;99.90;;;;;;5051471;28;20037;-62
2023/06/26 11:29:08;;;;;;;8.85;2.53;;;22.00;99.90;;;;;;5034468;28;20131;-62
2023/06/26 11:31:37;;;;;;;14.57;3.40;;;22.10;99.90;;;;;;5034532;28;20133;-62
2023/06/26 11:34:04;;;;;;;8.77;2.78;;;22.00;99.90;;;;;;5033355;28;20044;-62
2023/06/26 11:36:31;;;;;;;8.93;2.85;;;21.90;99.90;;;;;;5052075;28;20080;-62
2023/06/26 11:39:03;;;;;;;9.43;2.50;;;21.70;99.90;;;;;;5034161;28;20151;-62
2023/06/26 11:41:32;;;;;;;7.05;2.40;;;21.70;99.90;;;;;;5051165;28;20076;-62
2023/06/26 11:44:01;;;;;;;10.38;3.33;;;21.70;99.90;;;;;;5051740;28;20069;-62
2023/06/26 11:46:28;;;;;;;8.50;1.98;;;21.70;99.90;;;;;;5052063;28;20445;-62
2023/06/26 11:48:54;;;;;;;9.75;2.25;;;21.70;99.90;;;;;;5050672;28;20067;-62
2023/06/26 11:51:20;;;;;;;11.07;2.80;;;21.70;99.90;;;;;;5034329;28;20068;-62
2023/06/26 11:53:47;;;;;;;9.13;2.17;;;21.70;99.90;;;;;;5051920;28;20041;-62
2023/06/26 11:56:14;;;;;;;9.70;2.53;;;21.70;99.90;;;;;;5051004;28;20110;-62
2023/06/26 11:59:04;;;;;;;7.93;2.42;;;21.60;99.90;;;;;;5051835;28;20037;-61
2023/06/26 12:01:42;;;;;;;7.88;2.28;;;21.50;99.70;;;;;;5051216;28;20045;-62
2023/06/26 12:04:09;;;;;;;6.60;2.58;;;21.30;99.90;;;;;;5034369;28;20067;-62
2023/06/26 12:06:37;;;;;;;8.73;2.65;;;21.50;99.90;;;;;;5033898;28;20041;-62
2023/06/26 12:09:09;;;;;;;7.75;2.33;;;21.60;99.90;;;;;;5051107;28;20443;-62
2023/06/26 12:11:36;;;;;;;6.80;1.90;;;21.70;99.90;;;;;;5051906;28;20029;-62
2023/06/26 12:14:02;;;;;;;6.20;2.65;;;21.60;99.90;;;;;;5051931;28;20181;-62
2023/06/26 12:16:30;;;;;;;7.63;2.60;;;21.80;99.90;;;;;;5033080;28;20037;-62
2023/06/26 12:19:06;;;;;;;5.55;2.35;;;21.80;99.90;;;;;;5034039;28;20432;-62
2023/06/26 12:21:40;;;;;;;7.13;2.47;;;22.10;99.90;;;;;;5051433;28;21049;-62
2023/06/26 12:24:07;;;;;;;6.95;2.40;;;22.40;99.90;;;;;;5033246;28;20084;-62
2023/06/26 12:26:35;;;;;;;6.15;1.80;;;22.40;99.90;;;;;;5051677;28;20049;-62
2023/06/26 12:29:08;;;;;;;7.70;2.20;;;22.30;99.60;;;;;;5030272;28;20065;-62
2023/06/26 12:31:35;;;;;;;7.07;2.50;;;22.20;99.50;;;;;;5029622;28;20049;-62
2023/06/26 12:34:01;;;;;;;5.60;2.20;;;22.00;99.60;;;;;;5031541;28;20041;-62
2023/06/26 12:36:27;;;;;;;9.52;2.78;;;21.80;99.90;;;;;;5029725;28;20033;-62
2023/06/26 12:38:54;;;;;;;6.88;2.40;;;;;;;;;;5030253;28;20049;-62
2023/06/26 12:41:23;;;;;;;12.23;2.85;;;21.50;99.90;;;;;;5030556;28;20045;-62
2023/06/26 12:43:50;;;;;;;7.10;2.53;;;21.50;99.90;;;;;;5029527;28;20046;-61